PWSweather.com
Personal Weather Stations
Station Observations
KIDNAMPA57
Canyon County Idaho, Nampa, ID 83687

Canyon County IdahoNampa, ID 83687

Lat: 43.587235, Lon: -116.49831979999999

Elevation: 2615

Station Type: Davis Vantage Pro 2

www.rockinglweather.com

High Low Average
Temperature 45.9°F7.7°C 35.3°F1.8°C 39.8°F4.3°C
Dew Point 37.1°F2.8°C 31.4°F-0.3°C 34.6°F1.4°C
Winds 14.0 mph 22.5 kmh Calm Calm 5.0 mph SE8.0 kmh SE
Wind Gusts 18.0 mph29.0 kmh 2.0 mph3.2 kmh 10.0 mph16.1 kmh
Humidity 92% 67% 82%
Pressure 30.05 in1017.6 mb 29.75 in1007.5 mb -
Precipitation 0.00 in0.0 mm - -
Hour Temp Dew Point Humidity Winds Wind Gusts Pressure Precip Precip Rate Daily Precip Total
12:00 AM 35.4°F1.9°C 33.3°F0.7°C 92% 4.0 mph E6.4 kmh E 10.0 mph16.1 kmh 30.06 in1017.9 mb 0.00 in0.0 mm 0.00 in0.0 mm 0.00 in0.0 mm
12:05 AM 35.4°F1.9°C 33.3°F0.7°C 92% 4.0 mph E6.4 kmh E 7.0 mph11.3 kmh 30.06 in1017.9 mb 0.00 in0.0 mm 0.00 in0.0 mm 0.00 in0.0 mm
12:10 AM 35.5°F1.9°C 33.4°F0.8°C 92% 5.0 mph E8.0 kmh E 9.0 mph14.5 kmh 30.06 in1017.9 mb 0.00 in0.0 mm 0.00 in0.0 mm 0.00 in0.0 mm
12:15 AM 35.5°F1.9°C 33.1°F0.6°C 91% 7.0 mph E11.3 kmh E 9.0 mph14.5 kmh 30.06 in1017.9 mb 0.00 in0.0 mm 0.00 in0.0 mm 0.00 in0.0 mm
12:20 AM 35.5°F1.9°C 33.1°F0.6°C 91% 3.0 mph E4.8 kmh E 9.0 mph14.5 kmh 30.06 in1017.9 mb 0.00 in0.0 mm 0.00 in0.0 mm 0.00 in0.0 mm
12:25 AM 35.5°F1.9°C 33.1°F0.6°C 91% 4.0 mph E6.4 kmh E 9.0 mph14.5 kmh 30.05 in1017.6 mb 0.00 in0.0 mm 0.00 in0.0 mm 0.00 in0.0 mm
12:30 AM 35.5°F1.9°C 32.9°F0.5°C 90% 4.0 mph E6.4 kmh E 9.0 mph14.5 kmh 30.05 in1017.6 mb 0.00 in0.0 mm 0.00 in0.0 mm 0.00 in0.0 mm
12:35 AM 35.4°F1.9°C 32.8°F0.4°C 90% 4.0 mph E6.4 kmh E 6.0 mph9.7 kmh 30.05 in1017.6 mb 0.00 in0.0 mm 0.00 in0.0 mm 0.00 in0.0 mm
12:40 AM 35.4°F1.9°C 32.8°F0.4°C 90% 4.0 mph E6.4 kmh E 6.0 mph9.7 kmh 30.05 in1017.6 mb 0.00 in0.0 mm 0.00 in0.0 mm 0.00 in0.0 mm
12:45 AM 35.3°F1.8°C 32.7°F0.4°C 90% 3.0 mph E4.8 kmh E 8.0 mph12.9 kmh 30.04 in1017.3 mb 0.00 in0.0 mm 0.00 in0.0 mm 0.00 in0.0 mm
12:50 AM 35.2°F1.8°C 32.6°F0.3°C 90% 4.0 mph E6.4 kmh E 5.0 mph8.0 kmh 30.05 in1017.6 mb 0.00 in0.0 mm 0.00 in0.0 mm 0.00 in0.0 mm
12:55 AM 35.3°F1.8°C 32.7°F0.4°C 90% 3.0 mph E4.8 kmh E 5.0 mph8.0 kmh 30.05 in1017.6 mb 0.00 in0.0 mm 0.00 in0.0 mm 0.00 in0.0 mm
01:00 AM 35.3°F1.8°C 32.4°F0.2°C 89% 4.0 mph E6.4 kmh E 7.0 mph11.3 kmh 30.05 in1017.6 mb 0.00 in0.0 mm 0.00 in0.0 mm 0.00 in0.0 mm
01:05 AM 35.4°F1.9°C 32.5°F0.3°C 89% 5.0 mph E8.0 kmh E 8.0 mph12.9 kmh 30.04 in1017.3 mb 0.00 in0.0 mm 0.00 in0.0 mm 0.00 in0.0 mm
01:10 AM 35.5°F1.9°C 32.6°F0.3°C 89% 7.0 mph E11.3 kmh E 8.0 mph12.9 kmh 30.05 in1017.6 mb 0.00 in0.0 mm 0.00 in0.0 mm 0.00 in0.0 mm
01:15 AM 35.7°F2.1°C 32.8°F0.4°C 89% 1.0 mph ESE1.6 kmh ESE 8.0 mph12.9 kmh 30.04 in1017.3 mb 0.00 in0.0 mm 0.00 in0.0 mm 0.00 in0.0 mm
01:20 AM 35.7°F2.1°C 32.5°F0.3°C 88% 3.0 mph SE4.8 kmh SE 8.0 mph12.9 kmh 30.05 in1017.6 mb 0.00 in0.0 mm 0.00 in0.0 mm 0.00 in0.0 mm
01:25 AM 35.8°F2.1°C 32.6°F0.3°C 88% Calm Calm 8.0 mph12.9 kmh 30.04 in1017.3 mb 0.00 in0.0 mm 0.00 in0.0 mm 0.00 in0.0 mm
01:30 AM 35.7°F2.1°C 32.5°F0.3°C 88% 2.0 mph SE3.2 kmh SE 8.0 mph12.9 kmh 30.05 in1017.6 mb 0.00 in0.0 mm 0.00 in0.0 mm 0.00 in0.0 mm
01:35 AM 35.8°F2.1°C 32.3°F0.2°C 87% Calm Calm 3.0 mph4.8 kmh 30.04 in1017.3 mb 0.00 in0.0 mm 0.00 in0.0 mm 0.00 in0.0 mm
01:40 AM 35.8°F2.1°C 32.3°F0.2°C 87% 2.0 mph ESE3.2 kmh ESE 3.0 mph4.8 kmh 30.04 in1017.3 mb 0.00 in0.0 mm 0.00 in0.0 mm 0.00 in0.0 mm
01:45 AM 35.8°F2.1°C 32.3°F0.2°C 87% 1.0 mph E1.6 kmh E 5.0 mph8.0 kmh 30.04 in1017.3 mb 0.00 in0.0 mm 0.00 in0.0 mm 0.00 in0.0 mm
01:50 AM 35.9°F2.2°C 32.1°F0.1°C 86% 1.0 mph ESE1.6 kmh ESE 4.0 mph6.4 kmh 30.04 in1017.3 mb 0.00 in0.0 mm 0.00 in0.0 mm 0.00 in0.0 mm
01:55 AM 35.9°F2.2°C 32.1°F0.1°C 86% Calm Calm 6.0 mph9.7 kmh 30.04 in1017.3 mb 0.00 in0.0 mm 0.00 in0.0 mm 0.00 in0.0 mm
02:10 AM 36.1°F2.3°C 31.7°F-0.2°C 84% 7.0 mph ESE11.3 kmh ESE 8.0 mph12.9 kmh 30.04 in1017.3 mb 0.00 in0.0 mm 0.00 in0.0 mm 0.00 in0.0 mm
02:15 AM 36.1°F2.3°C 31.7°F-0.2°C 84% 4.0 mph ESE6.4 kmh ESE 8.0 mph12.9 kmh 30.04 in1017.3 mb 0.00 in0.0 mm 0.00 in0.0 mm 0.00 in0.0 mm
02:20 AM 36.1°F2.3°C 31.7°F-0.2°C 84% Calm Calm 7.0 mph11.3 kmh 30.04 in1017.3 mb 0.00 in0.0 mm 0.00 in0.0 mm 0.00 in0.0 mm
02:25 AM 36.1°F2.3°C 31.7°F-0.2°C 84% 4.0 mph SE6.4 kmh SE 7.0 mph11.3 kmh 30.04 in1017.3 mb 0.00 in0.0 mm 0.00 in0.0 mm 0.00 in0.0 mm
02:30 AM 36.0°F2.2°C 31.6°F-0.2°C 84% 3.0 mph SE4.8 kmh SE 7.0 mph11.3 kmh 30.05 in1017.6 mb 0.00 in0.0 mm 0.00 in0.0 mm 0.00 in0.0 mm
02:35 AM 35.9°F2.2°C 31.6°F-0.2°C 84% 2.0 mph SE3.2 kmh SE 6.0 mph9.7 kmh 30.04 in1017.3 mb 0.00 in0.0 mm 0.00 in0.0 mm 0.00 in0.0 mm
02:40 AM 36.0°F2.2°C 31.6°F-0.2°C 84% 6.0 mph SE9.7 kmh SE 8.0 mph12.9 kmh 30.05 in1017.6 mb 0.00 in0.0 mm 0.00 in0.0 mm 0.00 in0.0 mm
02:45 AM 36.1°F2.3°C 31.7°F-0.2°C 84% 4.0 mph SE6.4 kmh SE 9.0 mph14.5 kmh 30.04 in1017.3 mb 0.00 in0.0 mm 0.00 in0.0 mm 0.00 in0.0 mm
02:50 AM 36.2°F2.3°C 31.5°F-0.3°C 83% 2.0 mph SE3.2 kmh SE 9.0 mph14.5 kmh 30.05 in1017.6 mb 0.00 in0.0 mm 0.00 in0.0 mm 0.00 in0.0 mm
02:55 AM 36.3°F2.4°C 31.6°F-0.2°C 83% 1.0 mph SE1.6 kmh SE 9.0 mph14.5 kmh 30.04 in1017.3 mb 0.00 in0.0 mm 0.00 in0.0 mm 0.00 in0.0 mm
03:00 AM 36.4°F2.4°C 31.7°F-0.2°C 83% 3.0 mph SE4.8 kmh SE 9.0 mph14.5 kmh 30.04 in1017.3 mb 0.00 in0.0 mm 0.00 in0.0 mm 0.00 in0.0 mm
03:05 AM 36.4°F2.4°C 31.4°F-0.3°C 82% 5.0 mph SE8.0 kmh SE 6.0 mph9.7 kmh 30.04 in1017.3 mb 0.00 in0.0 mm 0.00 in0.0 mm 0.00 in0.0 mm
03:10 AM 36.5°F2.5°C 31.5°F-0.3°C 82% 7.0 mph ESE11.3 kmh ESE 9.0 mph14.5 kmh 30.04 in1017.3 mb 0.00 in0.0 mm 0.00 in0.0 mm 0.00 in0.0 mm
03:15 AM 36.7°F2.6°C 31.7°F-0.2°C 82% 4.0 mph SE6.4 kmh SE 9.0 mph14.5 kmh 30.04 in1017.3 mb 0.00 in0.0 mm 0.00 in0.0 mm 0.00 in0.0 mm
03:20 AM 36.8°F2.7°C 31.5°F-0.3°C 81% 3.0 mph SE4.8 kmh SE 7.0 mph11.3 kmh 30.04 in1017.3 mb 0.00 in0.0 mm 0.00 in0.0 mm 0.00 in0.0 mm
03:25 AM 36.7°F2.6°C 31.7°F-0.2°C 82% 1.0 mph E1.6 kmh E 7.0 mph11.3 kmh 30.04 in1017.3 mb 0.00 in0.0 mm 0.00 in0.0 mm 0.00 in0.0 mm
03:30 AM 36.9°F2.7°C 31.6°F-0.2°C 81% 3.0 mph SE4.8 kmh SE 7.0 mph11.3 kmh 30.03 in1016.9 mb 0.00 in0.0 mm 0.00 in0.0 mm 0.00 in0.0 mm
03:35 AM 37.1°F2.8°C 31.8°F-0.1°C 81% 1.0 mph SE1.6 kmh SE 4.0 mph6.4 kmh 30.03 in1016.9 mb 0.00 in0.0 mm 0.00 in0.0 mm 0.00 in0.0 mm
03:40 AM 37.0°F2.8°C 31.7°F-0.2°C 81% 2.0 mph SE3.2 kmh SE 4.0 mph6.4 kmh 30.03 in1016.9 mb 0.00 in0.0 mm 0.00 in0.0 mm 0.00 in0.0 mm
03:45 AM 37.0°F2.8°C 32.0°F0.0°C 82% 1.0 mph ESE1.6 kmh ESE 4.0 mph6.4 kmh 30.03 in1016.9 mb 0.00 in0.0 mm 0.00 in0.0 mm 0.00 in0.0 mm
03:50 AM 37.0°F2.8°C 32.0°F0.0°C 82% Calm Calm 3.0 mph4.8 kmh 30.02 in1016.6 mb 0.00 in0.0 mm 0.00 in0.0 mm 0.00 in0.0 mm
03:55 AM 37.1°F2.8°C 31.8°F-0.1°C 81% 3.0 mph ESE4.8 kmh ESE 3.0 mph4.8 kmh 30.02 in1016.6 mb 0.00 in0.0 mm 0.00 in0.0 mm 0.00 in0.0 mm
04:00 AM 37.2°F2.9°C 31.9°F-0.1°C 81% 3.0 mph ESE4.8 kmh ESE 4.0 mph6.4 kmh 30.03 in1016.9 mb 0.00 in0.0 mm 0.00 in0.0 mm 0.00 in0.0 mm
04:05 AM 37.3°F2.9°C 32.0°F0.0°C 81% 2.0 mph SE3.2 kmh SE 3.0 mph4.8 kmh 30.02 in1016.6 mb 0.00 in0.0 mm 0.00 in0.0 mm 0.00 in0.0 mm
04:10 AM 37.4°F3.0°C 32.1°F0.1°C 81% 2.0 mph SE3.2 kmh SE 4.0 mph6.4 kmh 30.02 in1016.6 mb 0.00 in0.0 mm 0.00 in0.0 mm 0.00 in0.0 mm
04:15 AM 37.3°F2.9°C 32.0°F0.0°C 81% Calm Calm 4.0 mph6.4 kmh 30.02 in1016.6 mb 0.00 in0.0 mm 0.00 in0.0 mm 0.00 in0.0 mm
04:20 AM 37.5°F3.1°C 31.9°F-0.1°C 80% Calm Calm 5.0 mph8.0 kmh 30.02 in1016.6 mb 0.00 in0.0 mm 0.00 in0.0 mm 0.00 in0.0 mm
04:25 AM 37.7°F3.2°C 32.1°F0.1°C 80% 3.0 mph ESE4.8 kmh ESE 5.0 mph8.0 kmh 30.02 in1016.6 mb 0.00 in0.0 mm 0.00 in0.0 mm 0.00 in0.0 mm
04:30 AM 37.9°F3.3°C 32.0°F0.0°C 79% 5.0 mph SE8.0 kmh SE 7.0 mph11.3 kmh 30.02 in1016.6 mb 0.00 in0.0 mm 0.00 in0.0 mm 0.00 in0.0 mm
04:35 AM 38.0°F3.3°C 32.1°F0.1°C 79% 3.0 mph E4.8 kmh E 5.0 mph8.0 kmh 30.01 in1016.3 mb 0.00 in0.0 mm 0.00 in0.0 mm 0.00 in0.0 mm
04:40 AM 38.1°F3.4°C 32.2°F0.1°C 79% 3.0 mph E4.8 kmh E 5.0 mph8.0 kmh 30.01 in1016.3 mb 0.00 in0.0 mm 0.00 in0.0 mm 0.00 in0.0 mm
04:45 AM 37.9°F3.3°C 32.3°F0.2°C 80% 2.0 mph E3.2 kmh E 5.0 mph8.0 kmh 30.01 in1016.3 mb 0.00 in0.0 mm 0.00 in0.0 mm 0.00 in0.0 mm
04:50 AM 37.9°F3.3°C 32.3°F0.2°C 80% 5.0 mph E8.0 kmh E 7.0 mph11.3 kmh 30.01 in1016.3 mb 0.00 in0.0 mm 0.00 in0.0 mm 0.00 in0.0 mm
04:55 AM 37.9°F3.3°C 32.6°F0.3°C 81% 3.0 mph E4.8 kmh E 8.0 mph12.9 kmh 30.01 in1016.3 mb 0.00 in0.0 mm 0.00 in0.0 mm 0.00 in0.0 mm
05:00 AM 37.8°F3.2°C 32.8°F0.4°C 82% 3.0 mph E4.8 kmh E 8.0 mph12.9 kmh 30.01 in1016.3 mb 0.00 in0.0 mm 0.00 in0.0 mm 0.00 in0.0 mm
05:05 AM 37.7°F3.2°C 33.0°F0.6°C 83% 6.0 mph SE9.7 kmh SE 10.0 mph16.1 kmh 30.01 in1016.3 mb 0.00 in0.0 mm 0.00 in0.0 mm 0.00 in0.0 mm
05:10 AM 37.6°F3.1°C 33.2°F0.7°C 84% 1.0 mph SE1.6 kmh SE 10.0 mph16.1 kmh 30.01 in1016.3 mb 0.00 in0.0 mm 0.00 in0.0 mm 0.00 in0.0 mm
05:15 AM 37.5°F3.1°C 33.4°F0.8°C 85% 6.0 mph ESE9.7 kmh ESE 10.0 mph16.1 kmh 30.01 in1016.3 mb 0.00 in0.0 mm 0.00 in0.0 mm 0.00 in0.0 mm
05:20 AM 37.4°F3.0°C 33.3°F0.7°C 85% 6.0 mph SE9.7 kmh SE 13.0 mph20.9 kmh 30.01 in1016.3 mb 0.00 in0.0 mm 0.00 in0.0 mm 0.00 in0.0 mm
05:25 AM 37.1°F2.8°C 33.3°F0.7°C 86% 5.0 mph E8.0 kmh E 15.0 mph24.1 kmh 30.00 in1015.9 mb 0.00 in0.0 mm 0.00 in0.0 mm 0.00 in0.0 mm
05:30 AM 36.7°F2.6°C 33.2°F0.7°C 87% 4.0 mph SE6.4 kmh SE 15.0 mph24.1 kmh 30.00 in1015.9 mb 0.00 in0.0 mm 0.00 in0.0 mm 0.00 in0.0 mm
05:35 AM 36.3°F2.4°C 33.1°F0.6°C 88% 3.0 mph SE4.8 kmh SE 13.0 mph20.9 kmh 30.00 in1015.9 mb 0.00 in0.0 mm 0.00 in0.0 mm 0.00 in0.0 mm
05:40 AM 36.0°F2.2°C 32.8°F0.4°C 88% 10.0 mph E16.1 kmh E 13.0 mph20.9 kmh 30.00 in1015.9 mb 0.00 in0.0 mm 0.00 in0.0 mm 0.00 in0.0 mm
05:45 AM 35.8°F2.1°C 32.9°F0.5°C 89% 4.0 mph ESE6.4 kmh ESE 13.0 mph20.9 kmh 30.00 in1015.9 mb 0.00 in0.0 mm 0.00 in0.0 mm 0.00 in0.0 mm
05:50 AM 35.6°F2.0°C 33.0°F0.6°C 90% 4.0 mph E6.4 kmh E 12.0 mph19.3 kmh 30.00 in1015.9 mb 0.00 in0.0 mm 0.00 in0.0 mm 0.00 in0.0 mm
05:55 AM 35.4°F1.9°C 32.8°F0.4°C 90% 8.0 mph ESE12.9 kmh ESE 12.0 mph19.3 kmh 30.00 in1015.9 mb 0.00 in0.0 mm 0.00 in0.0 mm 0.00 in0.0 mm
06:00 AM 35.3°F1.8°C 32.7°F0.4°C 90% 7.0 mph SE11.3 kmh SE 12.0 mph19.3 kmh 30.00 in1015.9 mb 0.00 in0.0 mm 0.00 in0.0 mm 0.00 in0.0 mm
06:05 AM 35.3°F1.8°C 32.7°F0.4°C 90% 6.0 mph SE9.7 kmh SE 7.0 mph11.3 kmh 29.99 in1015.6 mb 0.00 in0.0 mm 0.00 in0.0 mm 0.00 in0.0 mm
06:10 AM 35.3°F1.8°C 32.7°F0.4°C 90% 4.0 mph ESE6.4 kmh ESE 7.0 mph11.3 kmh 29.99 in1015.6 mb 0.00 in0.0 mm 0.00 in0.0 mm 0.00 in0.0 mm
06:15 AM 35.3°F1.8°C 32.7°F0.4°C 90% 6.0 mph ESE9.7 kmh ESE 9.0 mph14.5 kmh 29.99 in1015.6 mb 0.00 in0.0 mm 0.00 in0.0 mm 0.00 in0.0 mm
06:20 AM 35.3°F1.8°C 32.7°F0.4°C 90% 3.0 mph ESE4.8 kmh ESE 8.0 mph12.9 kmh 29.99 in1015.6 mb 0.00 in0.0 mm 0.00 in0.0 mm 0.00 in0.0 mm
06:25 AM 35.3°F1.8°C 32.7°F0.4°C 90% 2.0 mph SE3.2 kmh SE 8.0 mph12.9 kmh 29.99 in1015.6 mb 0.00 in0.0 mm 0.00 in0.0 mm 0.00 in0.0 mm
06:30 AM 35.8°F2.1°C 33.7°F0.9°C 92% 7.0 mph E11.3 kmh E 9.0 mph14.5 kmh 29.98 in1015.2 mb 0.00 in0.0 mm 0.00 in0.0 mm 0.00 in0.0 mm
06:35 AM 35.8°F2.1°C 33.4°F0.8°C 91% 5.0 mph E8.0 kmh E 10.0 mph16.1 kmh 29.98 in1015.2 mb 0.00 in0.0 mm 0.00 in0.0 mm 0.00 in0.0 mm
06:40 AM 35.7°F2.1°C 33.6°F0.9°C 92% 3.0 mph SE4.8 kmh SE 12.0 mph19.3 kmh 29.98 in1015.2 mb 0.00 in0.0 mm 0.00 in0.0 mm 0.00 in0.0 mm
06:45 AM 35.7°F2.1°C 33.6°F0.9°C 92% 3.0 mph SE4.8 kmh SE 12.0 mph19.3 kmh 29.98 in1015.2 mb 0.00 in0.0 mm 0.00 in0.0 mm 0.00 in0.0 mm
06:50 AM 35.8°F2.1°C 33.7°F0.9°C 92% 3.0 mph SE4.8 kmh SE 8.0 mph12.9 kmh 29.98 in1015.2 mb 0.00 in0.0 mm 0.00 in0.0 mm 0.00 in0.0 mm
06:55 AM 35.9°F2.2°C 33.8°F1.0°C 92% 3.0 mph SE4.8 kmh SE 9.0 mph14.5 kmh 29.98 in1015.2 mb 0.00 in0.0 mm 0.00 in0.0 mm 0.00 in0.0 mm
07:00 AM 36.0°F2.2°C 33.9°F1.1°C 92% 4.0 mph E6.4 kmh E 9.0 mph14.5 kmh 29.97 in1014.9 mb 0.00 in0.0 mm 0.00 in0.0 mm 0.00 in0.0 mm
07:05 AM 35.9°F2.2°C 33.8°F1.0°C 92% 9.0 mph SE14.5 kmh SE 9.0 mph14.5 kmh 29.97 in1014.9 mb 0.00 in0.0 mm 0.00 in0.0 mm 0.00 in0.0 mm
07:10 AM 35.9°F2.2°C 33.8°F1.0°C 92% 3.0 mph SE4.8 kmh SE 12.0 mph19.3 kmh 29.97 in1014.9 mb 0.00 in0.0 mm 0.00 in0.0 mm 0.00 in0.0 mm
07:15 AM 35.9°F2.2°C 33.8°F1.0°C 92% 4.0 mph E6.4 kmh E 12.0 mph19.3 kmh 29.97 in1014.9 mb 0.00 in0.0 mm 0.00 in0.0 mm 0.00 in0.0 mm
07:20 AM 35.9°F2.2°C 33.8°F1.0°C 92% 6.0 mph ESE9.7 kmh ESE 10.0 mph16.1 kmh 29.97 in1014.9 mb 0.00 in0.0 mm 0.00 in0.0 mm 0.00 in0.0 mm
07:25 AM 35.9°F2.2°C 33.8°F1.0°C 92% 3.0 mph SE4.8 kmh SE 10.0 mph16.1 kmh 29.97 in1014.9 mb 0.00 in0.0 mm 0.00 in0.0 mm 0.00 in0.0 mm
07:30 AM 35.9°F2.2°C 33.8°F1.0°C 92% 3.0 mph E4.8 kmh E 10.0 mph16.1 kmh 29.97 in1014.9 mb 0.00 in0.0 mm 0.00 in0.0 mm 0.00 in0.0 mm
07:35 AM 35.9°F2.2°C 33.8°F1.0°C 92% 4.0 mph SE6.4 kmh SE 11.0 mph17.7 kmh 29.96 in1014.6 mb 0.00 in0.0 mm 0.00 in0.0 mm 0.00 in0.0 mm
07:40 AM 35.9°F2.2°C 33.8°F1.0°C 92% 8.0 mph ESE12.9 kmh ESE 13.0 mph20.9 kmh 29.96 in1014.6 mb 0.00 in0.0 mm 0.00 in0.0 mm 0.00 in0.0 mm
07:45 AM 35.9°F2.2°C 33.8°F1.0°C 92% 3.0 mph E4.8 kmh E 13.0 mph20.9 kmh 29.96 in1014.6 mb 0.00 in0.0 mm 0.00 in0.0 mm 0.00 in0.0 mm
07:50 AM 35.9°F2.2°C 33.8°F1.0°C 92% 9.0 mph SE14.5 kmh SE 14.0 mph22.5 kmh 29.96 in1014.6 mb 0.00 in0.0 mm 0.00 in0.0 mm 0.00 in0.0 mm
07:55 AM 36.0°F2.2°C 33.9°F1.1°C 92% 10.0 mph SE16.1 kmh SE 14.0 mph22.5 kmh 29.96 in1014.6 mb 0.00 in0.0 mm 0.00 in0.0 mm 0.00 in0.0 mm
08:00 AM 36.1°F2.3°C 34.0°F1.1°C 92% 4.0 mph SSE6.4 kmh SSE 14.0 mph22.5 kmh 29.96 in1014.6 mb 0.00 in0.0 mm 0.00 in0.0 mm 0.00 in0.0 mm
08:05 AM 36.1°F2.3°C 34.0°F1.1°C 92% 4.0 mph ESE6.4 kmh ESE 10.0 mph16.1 kmh 29.96 in1014.6 mb 0.00 in0.0 mm 0.00 in0.0 mm 0.00 in0.0 mm
08:10 AM 36.1°F2.3°C 34.0°F1.1°C 92% 5.0 mph SE8.0 kmh SE 10.0 mph16.1 kmh 29.96 in1014.6 mb 0.00 in0.0 mm 0.00 in0.0 mm 0.00 in0.0 mm
08:15 AM 36.1°F2.3°C 34.0°F1.1°C 92% 2.0 mph SE3.2 kmh SE 13.0 mph20.9 kmh 29.95 in1014.2 mb 0.00 in0.0 mm 0.00 in0.0 mm 0.00 in0.0 mm
08:20 AM 36.1°F2.3°C 33.7°F0.9°C 91% 2.0 mph SE3.2 kmh SE 10.0 mph16.1 kmh 29.95 in1014.2 mb 0.00 in0.0 mm 0.00 in0.0 mm 0.00 in0.0 mm
08:25 AM 36.1°F2.3°C 33.7°F0.9°C 91% 7.0 mph E11.3 kmh E 11.0 mph17.7 kmh 29.95 in1014.2 mb 0.00 in0.0 mm 0.00 in0.0 mm 0.00 in0.0 mm
08:30 AM 36.1°F2.3°C 33.7°F0.9°C 91% 8.0 mph ESE12.9 kmh ESE 14.0 mph22.5 kmh 29.95 in1014.2 mb 0.00 in0.0 mm 0.00 in0.0 mm 0.00 in0.0 mm
08:35 AM 36.1°F2.3°C 33.7°F0.9°C 91% 11.0 mph E17.7 kmh E 11.0 mph17.7 kmh 29.95 in1014.2 mb 0.00 in0.0 mm 0.00 in0.0 mm 0.00 in0.0 mm
08:40 AM 36.1°F2.3°C 33.7°F0.9°C 91% 3.0 mph SE4.8 kmh SE 11.0 mph17.7 kmh 29.95 in1014.2 mb 0.00 in0.0 mm 0.00 in0.0 mm 0.00 in0.0 mm
08:45 AM 36.1°F2.3°C 33.7°F0.9°C 91% 9.0 mph SE14.5 kmh SE 11.0 mph17.7 kmh 29.95 in1014.2 mb 0.00 in0.0 mm 0.00 in0.0 mm 0.00 in0.0 mm
08:50 AM 36.1°F2.3°C 33.7°F0.9°C 91% 5.0 mph SE8.0 kmh SE 8.0 mph12.9 kmh 29.95 in1014.2 mb 0.00 in0.0 mm 0.00 in0.0 mm 0.00 in0.0 mm
08:55 AM 36.2°F2.3°C 33.6°F0.9°C 90% 5.0 mph SE8.0 kmh SE 9.0 mph14.5 kmh 29.96 in1014.6 mb 0.00 in0.0 mm 0.00 in0.0 mm 0.00 in0.0 mm
09:00 AM 36.5°F2.5°C 33.9°F1.1°C 90% 5.0 mph SE8.0 kmh SE 10.0 mph16.1 kmh 29.96 in1014.6 mb 0.00 in0.0 mm 0.00 in0.0 mm 0.00 in0.0 mm
09:05 AM 36.6°F2.6°C 33.7°F0.9°C 89% 4.0 mph ESE6.4 kmh ESE 8.0 mph12.9 kmh 29.96 in1014.6 mb 0.00 in0.0 mm 0.00 in0.0 mm 0.00 in0.0 mm
09:10 AM 36.8°F2.7°C 33.6°F0.9°C 88% 4.0 mph SE6.4 kmh SE 14.0 mph22.5 kmh 29.95 in1014.2 mb 0.00 in0.0 mm 0.00 in0.0 mm 0.00 in0.0 mm
09:15 AM 37.0°F2.8°C 33.5°F0.8°C 87% 8.0 mph SE12.9 kmh SE 14.0 mph22.5 kmh 29.95 in1014.2 mb 0.00 in0.0 mm 0.00 in0.0 mm 0.00 in0.0 mm
09:20 AM 37.2°F2.9°C 33.7°F0.9°C 87% 4.0 mph SE6.4 kmh SE 14.0 mph22.5 kmh 29.95 in1014.2 mb 0.00 in0.0 mm 0.00 in0.0 mm 0.00 in0.0 mm
09:25 AM 37.3°F2.9°C 33.5°F0.8°C 86% 7.0 mph SE11.3 kmh SE 16.0 mph25.7 kmh 29.94 in1013.9 mb 0.00 in0.0 mm 0.00 in0.0 mm 0.00 in0.0 mm
09:30 AM 37.4°F3.0°C 33.3°F0.7°C 85% 3.0 mph SE4.8 kmh SE 16.0 mph25.7 kmh 29.94 in1013.9 mb 0.00 in0.0 mm 0.00 in0.0 mm 0.00 in0.0 mm
09:35 AM 37.6°F3.1°C 33.5°F0.8°C 85% 5.0 mph SSE8.0 kmh SSE 11.0 mph17.7 kmh 29.94 in1013.9 mb 0.00 in0.0 mm 0.00 in0.0 mm 0.00 in0.0 mm
09:40 AM 37.8°F3.2°C 33.7°F0.9°C 85% 7.0 mph SE11.3 kmh SE 11.0 mph17.7 kmh 29.95 in1014.2 mb 0.00 in0.0 mm 0.00 in0.0 mm 0.00 in0.0 mm
09:45 AM 38.1°F3.4°C 33.7°F0.9°C 84% 6.0 mph SE9.7 kmh SE 13.0 mph20.9 kmh 29.95 in1014.2 mb 0.00 in0.0 mm 0.00 in0.0 mm 0.00 in0.0 mm
09:50 AM 38.3°F3.5°C 33.6°F0.9°C 83% 9.0 mph SE14.5 kmh SE 11.0 mph17.7 kmh 29.94 in1013.9 mb 0.00 in0.0 mm 0.00 in0.0 mm 0.00 in0.0 mm
09:55 AM 38.6°F3.7°C 33.9°F1.1°C 83% 5.0 mph SE8.0 kmh SE 13.0 mph20.9 kmh 29.94 in1013.9 mb 0.00 in0.0 mm 0.00 in0.0 mm 0.00 in0.0 mm
10:00 AM 38.8°F3.8°C 33.8°F1.0°C 82% 6.0 mph SE9.7 kmh SE 13.0 mph20.9 kmh 29.94 in1013.9 mb 0.00 in0.0 mm 0.00 in0.0 mm 0.00 in0.0 mm
10:05 AM 39.0°F3.9°C 33.7°F0.9°C 81% 8.0 mph ESE12.9 kmh ESE 14.0 mph22.5 kmh 29.94 in1013.9 mb 0.00 in0.0 mm 0.00 in0.0 mm 0.00 in0.0 mm
10:10 AM 39.2°F4.0°C 33.6°F0.9°C 80% 7.0 mph SE11.3 kmh SE 14.0 mph22.5 kmh 29.94 in1013.9 mb 0.00 in0.0 mm 0.00 in0.0 mm 0.00 in0.0 mm
10:15 AM 39.5°F4.2°C 33.5°F0.8°C 79% 11.0 mph SE17.7 kmh SE 14.0 mph22.5 kmh 29.95 in1014.2 mb 0.00 in0.0 mm 0.00 in0.0 mm 0.00 in0.0 mm
10:20 AM 39.6°F4.2°C 33.6°F0.9°C 79% 12.0 mph SSE19.3 kmh SSE 13.0 mph20.9 kmh 29.94 in1013.9 mb 0.00 in0.0 mm 0.00 in0.0 mm 0.00 in0.0 mm
10:25 AM 39.7°F4.3°C 33.7°F0.9°C 79% 6.0 mph SE9.7 kmh SE 14.0 mph22.5 kmh 29.94 in1013.9 mb 0.00 in0.0 mm 0.00 in0.0 mm 0.00 in0.0 mm
10:30 AM 39.7°F4.3°C 33.7°F0.9°C 79% 7.0 mph E11.3 kmh E 14.0 mph22.5 kmh 29.94 in1013.9 mb 0.00 in0.0 mm 0.00 in0.0 mm 0.00 in0.0 mm
10:35 AM 39.8°F4.3°C 33.8°F1.0°C 79% 8.0 mph ESE12.9 kmh ESE 13.0 mph20.9 kmh 29.94 in1013.9 mb 0.00 in0.0 mm 0.00 in0.0 mm 0.00 in0.0 mm
10:40 AM 39.9°F4.4°C 33.9°F1.1°C 79% 5.0 mph SE8.0 kmh SE 15.0 mph24.1 kmh 29.93 in1013.5 mb 0.00 in0.0 mm 0.00 in0.0 mm 0.00 in0.0 mm
10:45 AM 39.9°F4.4°C 33.6°F0.9°C 78% 13.0 mph SE20.9 kmh SE 15.0 mph24.1 kmh 29.93 in1013.5 mb 0.00 in0.0 mm 0.00 in0.0 mm 0.00 in0.0 mm
10:50 AM 39.9°F4.4°C 33.6°F0.9°C 78% 5.0 mph SE8.0 kmh SE 17.0 mph27.4 kmh 29.93 in1013.5 mb 0.00 in0.0 mm 0.00 in0.0 mm 0.00 in0.0 mm
10:55 AM 39.8°F4.3°C 33.5°F0.8°C 78% 13.0 mph ESE20.9 kmh ESE 17.0 mph27.4 kmh 29.93 in1013.5 mb 0.00 in0.0 mm 0.00 in0.0 mm 0.00 in0.0 mm
11:00 AM 39.8°F4.3°C 33.5°F0.8°C 78% 12.0 mph SSE19.3 kmh SSE 17.0 mph27.4 kmh 29.93 in1013.5 mb 0.00 in0.0 mm 0.00 in0.0 mm 0.00 in0.0 mm
11:05 AM 39.8°F4.3°C 33.8°F1.0°C 79% 6.0 mph ESE9.7 kmh ESE 14.0 mph22.5 kmh 29.93 in1013.5 mb 0.00 in0.0 mm 0.00 in0.0 mm 0.00 in0.0 mm
11:10 AM 39.7°F4.3°C 33.7°F0.9°C 79% 4.0 mph S6.4 kmh S 14.0 mph22.5 kmh 29.93 in1013.5 mb 0.00 in0.0 mm 0.00 in0.0 mm 0.00 in0.0 mm
11:15 AM 39.5°F4.2°C 33.9°F1.1°C 80% 7.0 mph ESE11.3 kmh ESE 14.0 mph22.5 kmh 29.92 in1013.2 mb 0.00 in0.0 mm 0.00 in0.0 mm 0.00 in0.0 mm
11:20 AM 39.4°F4.1°C 34.1°F1.2°C 81% 5.0 mph ESE8.0 kmh ESE 14.0 mph22.5 kmh 29.92 in1013.2 mb 0.00 in0.0 mm 0.00 in0.0 mm 0.00 in0.0 mm
11:25 AM 39.3°F4.1°C 34.0°F1.1°C 81% 4.0 mph SE6.4 kmh SE 14.0 mph22.5 kmh 29.92 in1013.2 mb 0.00 in0.0 mm 0.00 in0.0 mm 0.00 in0.0 mm
11:30 AM 39.2°F4.0°C 34.2°F1.2°C 82% 4.0 mph E6.4 kmh E 16.0 mph25.7 kmh 29.92 in1013.2 mb 0.00 in0.0 mm 0.00 in0.0 mm 0.00 in0.0 mm
11:35 AM 39.2°F4.0°C 34.2°F1.2°C 82% 7.0 mph ESE11.3 kmh ESE 12.0 mph19.3 kmh 29.92 in1013.2 mb 0.00 in0.0 mm 0.00 in0.0 mm 0.00 in0.0 mm
11:40 AM 39.3°F4.1°C 34.3°F1.3°C 82% 7.0 mph SE11.3 kmh SE 12.0 mph19.3 kmh 29.91 in1012.9 mb 0.00 in0.0 mm 0.00 in0.0 mm 0.00 in0.0 mm
11:45 AM 39.3°F4.1°C 34.3°F1.3°C 82% 5.0 mph SE8.0 kmh SE 12.0 mph19.3 kmh 29.91 in1012.9 mb 0.00 in0.0 mm 0.00 in0.0 mm 0.00 in0.0 mm
11:50 AM 39.4°F4.1°C 34.4°F1.3°C 82% 5.0 mph S8.0 kmh S 14.0 mph22.5 kmh 29.91 in1012.9 mb 0.00 in0.0 mm 0.00 in0.0 mm 0.00 in0.0 mm
11:55 AM 39.4°F4.1°C 34.4°F1.3°C 82% 5.0 mph ESE8.0 kmh ESE 14.0 mph22.5 kmh 29.91 in1012.9 mb 0.00 in0.0 mm 0.00 in0.0 mm 0.00 in0.0 mm
12:00 PM 39.5°F4.2°C 34.5°F1.4°C 82% 3.0 mph SE4.8 kmh SE 14.0 mph22.5 kmh 29.91 in1012.9 mb 0.00 in0.0 mm 0.00 in0.0 mm 0.00 in0.0 mm
12:05 PM 39.7°F4.3°C 34.4°F1.3°C 81% 6.0 mph SE9.7 kmh SE 11.0 mph17.7 kmh 29.91 in1012.9 mb 0.00 in0.0 mm 0.00 in0.0 mm 0.00 in0.0 mm
12:10 PM 39.8°F4.3°C 34.5°F1.4°C 81% 8.0 mph ESE12.9 kmh ESE 13.0 mph20.9 kmh 29.91 in1012.9 mb 0.00 in0.0 mm 0.00 in0.0 mm 0.00 in0.0 mm
12:15 PM 39.7°F4.3°C 34.4°F1.3°C 81% 5.0 mph SE8.0 kmh SE 13.0 mph20.9 kmh 29.91 in1012.9 mb 0.00 in0.0 mm 0.00 in0.0 mm 0.00 in0.0 mm
12:20 PM 39.7°F4.3°C 34.4°F1.3°C 81% 5.0 mph SE8.0 kmh SE 11.0 mph17.7 kmh 29.90 in1012.5 mb 0.00 in0.0 mm 0.00 in0.0 mm 0.00 in0.0 mm
12:25 PM 39.8°F4.3°C 34.8°F1.6°C 82% 8.0 mph SE12.9 kmh SE 14.0 mph22.5 kmh 29.90 in1012.5 mb 0.00 in0.0 mm 0.00 in0.0 mm 0.00 in0.0 mm
12:30 PM 39.9°F4.4°C 34.6°F1.4°C 81% 1.0 mph SSE1.6 kmh SSE 14.0 mph22.5 kmh 29.91 in1012.9 mb 0.00 in0.0 mm 0.00 in0.0 mm 0.00 in0.0 mm
12:35 PM 40.0°F4.4°C 34.7°F1.5°C 81% 4.0 mph SE6.4 kmh SE 8.0 mph12.9 kmh 29.91 in1012.9 mb 0.00 in0.0 mm 0.00 in0.0 mm 0.00 in0.0 mm
12:40 PM 39.9°F4.4°C 34.6°F1.4°C 81% 3.0 mph ESE4.8 kmh ESE 10.0 mph16.1 kmh 29.91 in1012.9 mb 0.00 in0.0 mm 0.00 in0.0 mm 0.00 in0.0 mm
12:45 PM 39.8°F4.3°C 34.8°F1.6°C 82% 4.0 mph SSE6.4 kmh SSE 10.0 mph16.1 kmh 29.91 in1012.9 mb 0.00 in0.0 mm 0.00 in0.0 mm 0.00 in0.0 mm
12:50 PM 39.7°F4.3°C 34.7°F1.5°C 82% 6.0 mph SE9.7 kmh SE 13.0 mph20.9 kmh 29.90 in1012.5 mb 0.00 in0.0 mm 0.00 in0.0 mm 0.00 in0.0 mm
12:55 PM 39.5°F4.2°C 34.8°F1.6°C 83% 5.0 mph ESE8.0 kmh ESE 13.0 mph20.9 kmh 29.91 in1012.9 mb 0.00 in0.0 mm 0.00 in0.0 mm 0.00 in0.0 mm
01:00 PM 39.4°F4.1°C 34.7°F1.5°C 83% 2.0 mph ESE3.2 kmh ESE 13.0 mph20.9 kmh 29.91 in1012.9 mb 0.00 in0.0 mm 0.00 in0.0 mm 0.00 in0.0 mm
01:05 PM 39.0°F3.9°C 34.6°F1.4°C 84% 9.0 mph E14.5 kmh E 11.0 mph17.7 kmh 29.90 in1012.5 mb 0.01 in0.3 mm 0.12 in3.0 mm 0.01 in0.3 mm
01:10 PM 38.5°F3.6°C 34.4°F1.3°C 85% 1.0 mph SE1.6 kmh SE 11.0 mph17.7 kmh 29.90 in1012.5 mb 0.02 in0.5 mm 0.12 in3.0 mm 0.02 in0.5 mm
01:15 PM 38.2°F3.4°C 34.4°F1.3°C 86% 9.0 mph E14.5 kmh E 14.0 mph22.5 kmh 29.90 in1012.5 mb 0.02 in0.5 mm 0.00 in0.0 mm 0.02 in0.5 mm
01:20 PM 38.2°F3.4°C 34.7°F1.5°C 87% 5.0 mph E8.0 kmh E 16.0 mph25.7 kmh 29.89 in1012.2 mb 0.03 in0.8 mm 0.12 in3.0 mm 0.03 in0.8 mm
01:25 PM 38.3°F3.5°C 34.8°F1.6°C 87% 9.0 mph E14.5 kmh E 16.0 mph25.7 kmh 29.89 in1012.2 mb 0.03 in0.8 mm 0.00 in0.0 mm 0.03 in0.8 mm
01:30 PM 38.5°F3.6°C 35.3°F1.8°C 88% 9.0 mph E14.5 kmh E 16.0 mph25.7 kmh 29.89 in1012.2 mb 0.03 in0.8 mm 0.00 in0.0 mm 0.03 in0.8 mm
01:35 PM 38.6°F3.7°C 35.4°F1.9°C 88% 9.0 mph E14.5 kmh E 14.0 mph22.5 kmh 29.88 in1011.9 mb 0.04 in1.0 mm 0.12 in3.0 mm 0.04 in1.0 mm
01:40 PM 38.7°F3.7°C 35.5°F1.9°C 88% 11.0 mph E17.7 kmh E 14.0 mph22.5 kmh 29.88 in1011.9 mb 0.04 in1.0 mm 0.00 in0.0 mm 0.04 in1.0 mm
01:45 PM 38.8°F3.8°C 35.6°F2.0°C 88% 8.0 mph E12.9 kmh E 14.0 mph22.5 kmh 29.88 in1011.9 mb 0.04 in1.0 mm 0.00 in0.0 mm 0.04 in1.0 mm
01:50 PM 38.9°F3.8°C 35.7°F2.1°C 88% 3.0 mph E4.8 kmh E 10.0 mph16.1 kmh 29.88 in1011.9 mb 0.04 in1.0 mm 0.00 in0.0 mm 0.04 in1.0 mm
01:55 PM 39.0°F3.9°C 35.8°F2.1°C 88% 8.0 mph E12.9 kmh E 13.0 mph20.9 kmh 29.87 in1011.5 mb 0.04 in1.0 mm 0.00 in0.0 mm 0.04 in1.0 mm
02:00 PM 39.2°F4.0°C 36.0°F2.2°C 88% 7.0 mph E11.3 kmh E 17.0 mph27.4 kmh 29.87 in1011.5 mb 0.04 in1.0 mm 0.00 in0.0 mm 0.04 in1.0 mm
02:05 PM 39.4°F4.1°C 35.9°F2.2°C 87% 13.0 mph E20.9 kmh E 15.0 mph24.1 kmh 29.87 in1011.5 mb 0.04 in1.0 mm 0.00 in0.0 mm 0.04 in1.0 mm
02:10 PM 39.6°F4.2°C 36.1°F2.3°C 87% 9.0 mph SE14.5 kmh SE 15.0 mph24.1 kmh 29.86 in1011.2 mb 0.04 in1.0 mm 0.00 in0.0 mm 0.04 in1.0 mm
02:15 PM 39.7°F4.3°C 35.9°F2.2°C 86% 7.0 mph ESE11.3 kmh ESE 15.0 mph24.1 kmh 29.86 in1011.2 mb 0.04 in1.0 mm 0.00 in0.0 mm 0.04 in1.0 mm
02:20 PM 39.7°F4.3°C 35.9°F2.2°C 86% 5.0 mph E8.0 kmh E 12.0 mph19.3 kmh 29.86 in1011.2 mb 0.02 in0.5 mm 0.00 in0.0 mm 0.04 in1.0 mm
02:25 PM 39.7°F4.3°C 36.2°F2.3°C 87% 14.0 mph E22.5 kmh E 16.0 mph25.7 kmh 29.85 in1010.8 mb 0.02 in0.5 mm 0.00 in0.0 mm 0.04 in1.0 mm
02:30 PM 39.7°F4.3°C 36.2°F2.3°C 87% 5.0 mph E8.0 kmh E 16.0 mph25.7 kmh 29.85 in1010.8 mb 0.02 in0.5 mm 0.00 in0.0 mm 0.04 in1.0 mm
02:35 PM 39.8°F4.3°C 36.3°F2.4°C 87% 7.0 mph E11.3 kmh E 11.0 mph17.7 kmh 29.85 in1010.8 mb 0.00 in0.0 mm 0.00 in0.0 mm 0.04 in1.0 mm
02:40 PM 39.9°F4.4°C 36.4°F2.4°C 87% 13.0 mph ESE20.9 kmh ESE 14.0 mph22.5 kmh 29.85 in1010.8 mb 0.00 in0.0 mm 0.00 in0.0 mm 0.04 in1.0 mm
02:45 PM 40.0°F4.4°C 36.5°F2.5°C 87% 8.0 mph E12.9 kmh E 15.0 mph24.1 kmh 29.84 in1010.5 mb 0.00 in0.0 mm 0.00 in0.0 mm 0.04 in1.0 mm
02:50 PM 40.1°F4.5°C 36.3°F2.4°C 86% 9.0 mph E14.5 kmh E 12.0 mph19.3 kmh 29.84 in1010.5 mb 0.00 in0.0 mm 0.00 in0.0 mm 0.04 in1.0 mm
02:55 PM 40.2°F4.6°C 36.4°F2.4°C 86% 11.0 mph E17.7 kmh E 16.0 mph25.7 kmh 29.83 in1010.2 mb 0.00 in0.0 mm 0.00 in0.0 mm 0.04 in1.0 mm
03:00 PM 40.3°F4.6°C 36.5°F2.5°C 86% 7.0 mph ESE11.3 kmh ESE 16.0 mph25.7 kmh 29.83 in1010.2 mb 0.00 in0.0 mm 0.00 in0.0 mm 0.04 in1.0 mm
03:05 PM 40.4°F4.7°C 36.6°F2.6°C 86% 7.0 mph ESE11.3 kmh ESE 14.0 mph22.5 kmh 29.83 in1010.2 mb 0.00 in0.0 mm 0.00 in0.0 mm 0.04 in1.0 mm
03:10 PM 40.5°F4.7°C 36.7°F2.6°C 86% 5.0 mph E8.0 kmh E 14.0 mph22.5 kmh 29.82 in1009.8 mb 0.00 in0.0 mm 0.00 in0.0 mm 0.04 in1.0 mm
03:15 PM 40.8°F4.9°C 36.9°F2.7°C 86% 6.0 mph ESE9.7 kmh ESE 14.0 mph22.5 kmh 29.82 in1009.8 mb 0.00 in0.0 mm 0.00 in0.0 mm 0.04 in1.0 mm
03:20 PM 40.9°F4.9°C 36.8°F2.7°C 85% 9.0 mph SE14.5 kmh SE 16.0 mph25.7 kmh 29.82 in1009.8 mb 0.00 in0.0 mm 0.00 in0.0 mm 0.04 in1.0 mm
03:25 PM 41.0°F5.0°C 36.8°F2.7°C 85% 7.0 mph E11.3 kmh E 16.0 mph25.7 kmh 29.82 in1009.8 mb 0.00 in0.0 mm 0.00 in0.0 mm 0.04 in1.0 mm
03:30 PM 41.0°F5.0°C 36.8°F2.7°C 85% 5.0 mph ESE8.0 kmh ESE 16.0 mph25.7 kmh 29.82 in1009.8 mb 0.00 in0.0 mm 0.00 in0.0 mm 0.04 in1.0 mm
03:35 PM 41.1°F5.1°C 36.9°F2.7°C 85% 10.0 mph SE16.1 kmh SE 13.0 mph20.9 kmh 29.82 in1009.8 mb 0.00 in0.0 mm 0.00 in0.0 mm 0.04 in1.0 mm
03:40 PM 41.2°F5.1°C 37.0°F2.8°C 85% 8.0 mph E12.9 kmh E 14.0 mph22.5 kmh 29.81 in1009.5 mb 0.00 in0.0 mm 0.00 in0.0 mm 0.04 in1.0 mm
03:45 PM 41.2°F5.1°C 37.0°F2.8°C 85% 9.0 mph E14.5 kmh E 16.0 mph25.7 kmh 29.81 in1009.5 mb 0.00 in0.0 mm 0.00 in0.0 mm 0.04 in1.0 mm
03:50 PM 41.2°F5.1°C 37.0°F2.8°C 85% 7.0 mph ESE11.3 kmh ESE 16.0 mph25.7 kmh 29.81 in1009.5 mb 0.00 in0.0 mm 0.00 in0.0 mm 0.04 in1.0 mm
03:55 PM 41.2°F5.1°C 37.0°F2.8°C 85% 8.0 mph E12.9 kmh E 16.0 mph25.7 kmh 29.81 in1009.5 mb 0.00 in0.0 mm 0.00 in0.0 mm 0.04 in1.0 mm
04:00 PM 41.2°F5.1°C 37.0°F2.8°C 85% 11.0 mph SE17.7 kmh SE 16.0 mph25.7 kmh 29.81 in1009.5 mb 0.00 in0.0 mm 0.00 in0.0 mm 0.04 in1.0 mm
04:05 PM 41.3°F5.2°C 37.1°F2.8°C 85% 14.0 mph E22.5 kmh E 14.0 mph22.5 kmh 29.81 in1009.5 mb 0.00 in0.0 mm 0.00 in0.0 mm 0.04 in1.0 mm
04:10 PM 41.2°F5.1°C 37.0°F2.8°C 85% 6.0 mph ESE9.7 kmh ESE 14.0 mph22.5 kmh 29.81 in1009.5 mb 0.00 in0.0 mm 0.00 in0.0 mm 0.04 in1.0 mm
04:15 PM 41.2°F5.1°C 37.0°F2.8°C 85% 8.0 mph E12.9 kmh E 18.0 mph29.0 kmh 29.81 in1009.5 mb 0.00 in0.0 mm 0.00 in0.0 mm 0.04 in1.0 mm
04:20 PM 41.4°F5.2°C 36.9°F2.7°C 84% 5.0 mph E8.0 kmh E 14.0 mph22.5 kmh 29.80 in1009.1 mb 0.00 in0.0 mm 0.00 in0.0 mm 0.04 in1.0 mm
04:25 PM 41.5°F5.3°C 37.0°F2.8°C 84% 9.0 mph ESE14.5 kmh ESE 15.0 mph24.1 kmh 29.81 in1009.5 mb 0.00 in0.0 mm 0.00 in0.0 mm 0.04 in1.0 mm
04:30 PM 41.5°F5.3°C 37.0°F2.8°C 84% 2.0 mph ESE3.2 kmh ESE 15.0 mph24.1 kmh 29.80 in1009.1 mb 0.00 in0.0 mm 0.00 in0.0 mm 0.04 in1.0 mm
04:35 PM 41.5°F5.3°C 37.0°F2.8°C 84% 7.0 mph E11.3 kmh E 13.0 mph20.9 kmh 29.80 in1009.1 mb 0.00 in0.0 mm 0.00 in0.0 mm 0.04 in1.0 mm
04:40 PM 41.5°F5.3°C 37.0°F2.8°C 84% 5.0 mph E8.0 kmh E 13.0 mph20.9 kmh 29.80 in1009.1 mb 0.00 in0.0 mm 0.00 in0.0 mm 0.04 in1.0 mm
04:45 PM 41.4°F5.2°C 36.6°F2.6°C 83% 7.0 mph E11.3 kmh E 13.0 mph20.9 kmh 29.80 in1009.1 mb 0.00 in0.0 mm 0.00 in0.0 mm 0.04 in1.0 mm
04:50 PM 41.5°F5.3°C 36.7°F2.6°C 83% 4.0 mph E6.4 kmh E 10.0 mph16.1 kmh 29.80 in1009.1 mb 0.00 in0.0 mm 0.00 in0.0 mm 0.04 in1.0 mm
04:55 PM 41.4°F5.2°C 36.9°F2.7°C 84% 8.0 mph E12.9 kmh E 10.0 mph16.1 kmh 29.80 in1009.1 mb 0.00 in0.0 mm 0.00 in0.0 mm 0.04 in1.0 mm
05:00 PM 41.3°F5.2°C 36.8°F2.7°C 84% 11.0 mph E17.7 kmh E 12.0 mph19.3 kmh 29.80 in1009.1 mb 0.00 in0.0 mm 0.00 in0.0 mm 0.04 in1.0 mm
05:05 PM 41.2°F5.1°C 36.7°F2.6°C 84% 6.0 mph SE9.7 kmh SE 15.0 mph24.1 kmh 29.80 in1009.1 mb 0.00 in0.0 mm 0.00 in0.0 mm 0.04 in1.0 mm
05:10 PM 41.1°F5.1°C 36.6°F2.6°C 84% 10.0 mph ESE16.1 kmh ESE 15.0 mph24.1 kmh 29.79 in1008.8 mb 0.00 in0.0 mm 0.00 in0.0 mm 0.04 in1.0 mm
05:15 PM 41.1°F5.1°C 36.6°F2.6°C 84% 3.0 mph SE4.8 kmh SE 15.0 mph24.1 kmh 29.80 in1009.1 mb 0.00 in0.0 mm 0.00 in0.0 mm 0.04 in1.0 mm
05:20 PM 41.1°F5.1°C 36.6°F2.6°C 84% 6.0 mph SE9.7 kmh SE 10.0 mph16.1 kmh 29.80 in1009.1 mb 0.00 in0.0 mm 0.00 in0.0 mm 0.04 in1.0 mm
05:25 PM 41.2°F5.1°C 36.7°F2.6°C 84% 6.0 mph ESE9.7 kmh ESE 12.0 mph19.3 kmh 29.79 in1008.8 mb 0.00 in0.0 mm 0.00 in0.0 mm 0.04 in1.0 mm
05:30 PM 41.2°F5.1°C 36.7°F2.6°C 84% 5.0 mph ESE8.0 kmh ESE 12.0 mph19.3 kmh 29.79 in1008.8 mb 0.00 in0.0 mm 0.00 in0.0 mm 0.04 in1.0 mm
05:35 PM 41.1°F5.1°C 36.6°F2.6°C 84% 7.0 mph E11.3 kmh E 12.0 mph19.3 kmh 29.79 in1008.8 mb 0.00 in0.0 mm 0.00 in0.0 mm 0.04 in1.0 mm
05:40 PM 41.0°F5.0°C 36.5°F2.5°C 84% 11.0 mph E17.7 kmh E 15.0 mph24.1 kmh 29.79 in1008.8 mb 0.00 in0.0 mm 0.00 in0.0 mm 0.04 in1.0 mm
05:45 PM 41.0°F5.0°C 36.5°F2.5°C 84% 11.0 mph E17.7 kmh E 15.0 mph24.1 kmh 29.78 in1008.5 mb 0.00 in0.0 mm 0.00 in0.0 mm 0.04 in1.0 mm
05:50 PM 40.9°F4.9°C 36.5°F2.5°C 84% 12.0 mph E19.3 kmh E 15.0 mph24.1 kmh 29.78 in1008.5 mb 0.00 in0.0 mm 0.00 in0.0 mm 0.04 in1.0 mm
05:55 PM 40.9°F4.9°C 36.5°F2.5°C 84% 4.0 mph E6.4 kmh E 15.0 mph24.1 kmh 29.78 in1008.5 mb 0.00 in0.0 mm 0.00 in0.0 mm 0.04 in1.0 mm
06:00 PM 41.0°F5.0°C 36.5°F2.5°C 84% 7.0 mph ESE11.3 kmh ESE 15.0 mph24.1 kmh 29.78 in1008.5 mb 0.00 in0.0 mm 0.00 in0.0 mm 0.04 in1.0 mm
06:05 PM 41.0°F5.0°C 36.5°F2.5°C 84% 8.0 mph E12.9 kmh E 11.0 mph17.7 kmh 29.78 in1008.5 mb 0.00 in0.0 mm 0.00 in0.0 mm 0.04 in1.0 mm
06:10 PM 41.1°F5.1°C 36.6°F2.6°C 84% 8.0 mph E12.9 kmh E 12.0 mph19.3 kmh 29.78 in1008.5 mb 0.00 in0.0 mm 0.00 in0.0 mm 0.04 in1.0 mm
06:15 PM 41.1°F5.1°C 36.3°F2.4°C 83% 11.0 mph E17.7 kmh E 16.0 mph25.7 kmh 29.78 in1008.5 mb 0.00 in0.0 mm 0.00 in0.0 mm 0.04 in1.0 mm
06:20 PM 41.2°F5.1°C 36.4°F2.4°C 83% 2.0 mph E3.2 kmh E 13.0 mph20.9 kmh 29.78 in1008.5 mb 0.00 in0.0 mm 0.00 in0.0 mm 0.04 in1.0 mm
06:25 PM 41.2°F5.1°C 36.4°F2.4°C 83% 2.0 mph SE3.2 kmh SE 14.0 mph22.5 kmh 29.77 in1008.1 mb 0.00 in0.0 mm 0.00 in0.0 mm 0.04 in1.0 mm
06:30 PM 41.5°F5.3°C 36.4°F2.4°C 82% 7.0 mph E11.3 kmh E 14.0 mph22.5 kmh 29.77 in1008.1 mb 0.00 in0.0 mm 0.00 in0.0 mm 0.04 in1.0 mm
06:35 PM 41.7°F5.4°C 36.3°F2.4°C 81% 2.0 mph E3.2 kmh E 10.0 mph16.1 kmh 29.77 in1008.1 mb 0.00 in0.0 mm 0.00 in0.0 mm 0.04 in1.0 mm
06:40 PM 41.7°F5.4°C 36.3°F2.4°C 81% 2.0 mph SE3.2 kmh SE 10.0 mph16.1 kmh 29.77 in1008.1 mb 0.00 in0.0 mm 0.00 in0.0 mm 0.04 in1.0 mm
06:45 PM 41.8°F5.4°C 36.1°F2.3°C 80% 6.0 mph ESE9.7 kmh ESE 10.0 mph16.1 kmh 29.77 in1008.1 mb 0.00 in0.0 mm 0.00 in0.0 mm 0.04 in1.0 mm
06:50 PM 41.9°F5.5°C 36.2°F2.3°C 80% 4.0 mph E6.4 kmh E 9.0 mph14.5 kmh 29.77 in1008.1 mb 0.00 in0.0 mm 0.00 in0.0 mm 0.04 in1.0 mm
06:55 PM 42.1°F5.6°C 36.1°F2.3°C 79% 7.0 mph ESE11.3 kmh ESE 9.0 mph14.5 kmh 29.77 in1008.1 mb 0.00 in0.0 mm 0.00 in0.0 mm 0.04 in1.0 mm
07:05 PM 42.0°F5.6°C 36.0°F2.2°C 79% 2.0 mph ESE3.2 kmh ESE 4.0 mph6.4 kmh 29.76 in1007.8 mb 0.00 in0.0 mm 0.00 in0.0 mm 0.04 in1.0 mm
07:10 PM 42.0°F5.6°C 36.0°F2.2°C 79% 3.0 mph ESE4.8 kmh ESE 5.0 mph8.0 kmh 29.77 in1008.1 mb 0.00 in0.0 mm 0.00 in0.0 mm 0.04 in1.0 mm
07:15 PM 42.2°F5.7°C 35.8°F2.1°C 78% 2.0 mph ESE3.2 kmh ESE 7.0 mph11.3 kmh 29.76 in1007.8 mb 0.00 in0.0 mm 0.00 in0.0 mm 0.04 in1.0 mm
07:20 PM 42.3°F5.7°C 35.9°F2.2°C 78% 1.0 mph E1.6 kmh E 6.0 mph9.7 kmh 29.76 in1007.8 mb 0.00 in0.0 mm 0.00 in0.0 mm 0.04 in1.0 mm
07:25 PM 42.4°F5.8°C 35.7°F2.1°C 77% 4.0 mph SE6.4 kmh SE 6.0 mph9.7 kmh 29.76 in1007.8 mb 0.00 in0.0 mm 0.00 in0.0 mm 0.04 in1.0 mm
07:30 PM 42.4°F5.8°C 35.7°F2.1°C 77% 2.0 mph ESE3.2 kmh ESE 6.0 mph9.7 kmh 29.76 in1007.8 mb 0.00 in0.0 mm 0.00 in0.0 mm 0.04 in1.0 mm
07:35 PM 42.4°F5.8°C 35.7°F2.1°C 77% 3.0 mph E4.8 kmh E 5.0 mph8.0 kmh 29.76 in1007.8 mb 0.00 in0.0 mm 0.00 in0.0 mm 0.04 in1.0 mm
07:40 PM 42.4°F5.8°C 35.7°F2.1°C 77% 3.0 mph ESE4.8 kmh ESE 6.0 mph9.7 kmh 29.76 in1007.8 mb 0.00 in0.0 mm 0.00 in0.0 mm 0.04 in1.0 mm
07:45 PM 42.2°F5.7°C 35.5°F1.9°C 77% 4.0 mph E6.4 kmh E 7.0 mph11.3 kmh 29.76 in1007.8 mb 0.00 in0.0 mm 0.00 in0.0 mm 0.04 in1.0 mm
07:50 PM 42.1°F5.6°C 35.8°F2.1°C 78% 5.0 mph E8.0 kmh E 5.0 mph8.0 kmh 29.76 in1007.8 mb 0.00 in0.0 mm 0.00 in0.0 mm 0.04 in1.0 mm
07:55 PM 41.8°F5.4°C 35.8°F2.1°C 79% 4.0 mph E6.4 kmh E 7.0 mph11.3 kmh 29.76 in1007.8 mb 0.00 in0.0 mm 0.00 in0.0 mm 0.04 in1.0 mm
08:00 PM 41.5°F5.3°C 35.8°F2.1°C 80% 4.0 mph ESE6.4 kmh ESE 8.0 mph12.9 kmh 29.76 in1007.8 mb 0.00 in0.0 mm 0.00 in0.0 mm 0.04 in1.0 mm
08:05 PM 41.4°F5.2°C 35.7°F2.1°C 80% 4.0 mph E6.4 kmh E 5.0 mph8.0 kmh 29.76 in1007.8 mb 0.00 in0.0 mm 0.00 in0.0 mm 0.04 in1.0 mm
08:10 PM 41.4°F5.2°C 35.7°F2.1°C 80% 1.0 mph ESE1.6 kmh ESE 8.0 mph12.9 kmh 29.77 in1008.1 mb 0.00 in0.0 mm 0.00 in0.0 mm 0.04 in1.0 mm
08:15 PM 41.4°F5.2°C 35.7°F2.1°C 80% Calm Calm 8.0 mph12.9 kmh 29.77 in1008.1 mb 0.00 in0.0 mm 0.00 in0.0 mm 0.04 in1.0 mm
08:20 PM 41.3°F5.2°C 35.9°F2.2°C 81% 1.0 mph ESE1.6 kmh ESE 3.0 mph4.8 kmh 29.76 in1007.8 mb 0.00 in0.0 mm 0.00 in0.0 mm 0.04 in1.0 mm
08:25 PM 41.2°F5.1°C 35.8°F2.1°C 81% 1.0 mph ESE1.6 kmh ESE 3.0 mph4.8 kmh 29.77 in1008.1 mb 0.00 in0.0 mm 0.00 in0.0 mm 0.04 in1.0 mm
08:30 PM 41.4°F5.2°C 35.7°F2.1°C 80% 2.0 mph SSE3.2 kmh SSE 4.0 mph6.4 kmh 29.76 in1007.8 mb 0.00 in0.0 mm 0.00 in0.0 mm 0.04 in1.0 mm
08:35 PM 42.0°F5.6°C 35.7°F2.1°C 78% 3.0 mph S4.8 kmh S 4.0 mph6.4 kmh 29.76 in1007.8 mb 0.00 in0.0 mm 0.00 in0.0 mm 0.04 in1.0 mm
08:40 PM 42.9°F6.1°C 35.5°F1.9°C 75% 3.0 mph SSE4.8 kmh SSE 4.0 mph6.4 kmh 29.76 in1007.8 mb 0.00 in0.0 mm 0.00 in0.0 mm 0.04 in1.0 mm
08:45 PM 43.6°F6.4°C 35.5°F1.9°C 73% 2.0 mph SSE3.2 kmh SSE 6.0 mph9.7 kmh 29.76 in1007.8 mb 0.00 in0.0 mm 0.00 in0.0 mm 0.04 in1.0 mm
08:50 PM 44.3°F6.8°C 35.5°F1.9°C 71% 5.0 mph S8.0 kmh S 5.0 mph8.0 kmh 29.77 in1008.1 mb 0.00 in0.0 mm 0.00 in0.0 mm 0.04 in1.0 mm
08:55 PM 44.5°F6.9°C 35.3°F1.8°C 70% 2.0 mph S3.2 kmh S 8.0 mph12.9 kmh 29.76 in1007.8 mb 0.00 in0.0 mm 0.00 in0.0 mm 0.04 in1.0 mm
09:00 PM 44.8°F7.1°C 35.3°F1.8°C 69% 2.0 mph S3.2 kmh S 8.0 mph12.9 kmh 29.76 in1007.8 mb 0.00 in0.0 mm 0.00 in0.0 mm 0.04 in1.0 mm
09:05 PM 44.8°F7.1°C 35.3°F1.8°C 69% 2.0 mph S3.2 kmh S 4.0 mph6.4 kmh 29.76 in1007.8 mb 0.00 in0.0 mm 0.00 in0.0 mm 0.04 in1.0 mm
09:10 PM 45.1°F7.3°C 35.2°F1.8°C 68% 4.0 mph SSE6.4 kmh SSE 6.0 mph9.7 kmh 29.76 in1007.8 mb 0.00 in0.0 mm 0.00 in0.0 mm 0.04 in1.0 mm
09:15 PM 45.1°F7.3°C 35.2°F1.8°C 68% 3.0 mph S4.8 kmh S 6.0 mph9.7 kmh 29.76 in1007.8 mb 0.00 in0.0 mm 0.00 in0.0 mm 0.04 in1.0 mm
09:20 PM 45.2°F7.3°C 34.9°F1.6°C 67% 1.0 mph SSW1.6 kmh SSW 5.0 mph8.0 kmh 29.76 in1007.8 mb 0.00 in0.0 mm 0.00 in0.0 mm 0.04 in1.0 mm
09:25 PM 45.2°F7.3°C 34.9°F1.6°C 67% 3.0 mph S4.8 kmh S 7.0 mph11.3 kmh 29.76 in1007.8 mb 0.00 in0.0 mm 0.00 in0.0 mm 0.04 in1.0 mm
09:30 PM 45.1°F7.3°C 35.2°F1.8°C 68% 2.0 mph SSW3.2 kmh SSW 7.0 mph11.3 kmh 29.76 in1007.8 mb 0.00 in0.0 mm 0.00 in0.0 mm 0.04 in1.0 mm
09:35 PM 45.2°F7.3°C 35.3°F1.8°C 68% 7.0 mph S11.3 kmh S 8.0 mph12.9 kmh 29.76 in1007.8 mb 0.00 in0.0 mm 0.00 in0.0 mm 0.04 in1.0 mm
09:40 PM 45.9°F7.7°C 35.6°F2.0°C 67% 1.0 mph SW1.6 kmh SW 14.0 mph22.5 kmh 29.76 in1007.8 mb 0.00 in0.0 mm 0.00 in0.0 mm 0.04 in1.0 mm
09:45 PM 45.7°F7.6°C 35.8°F2.1°C 68% 3.0 mph SSW4.8 kmh SSW 14.0 mph22.5 kmh 29.76 in1007.8 mb 0.00 in0.0 mm 0.00 in0.0 mm 0.04 in1.0 mm
09:50 PM 45.6°F7.6°C 35.7°F2.1°C 68% 1.0 mph SSW1.6 kmh SSW 5.0 mph8.0 kmh 29.76 in1007.8 mb 0.00 in0.0 mm 0.00 in0.0 mm 0.04 in1.0 mm
09:55 PM 45.2°F7.3°C 35.7°F2.1°C 69% 3.0 mph SSW4.8 kmh SSW 5.0 mph8.0 kmh 29.76 in1007.8 mb 0.00 in0.0 mm 0.00 in0.0 mm 0.04 in1.0 mm
10:00 PM 45.1°F7.3°C 35.6°F2.0°C 69% 4.0 mph SSW6.4 kmh SSW 7.0 mph11.3 kmh 29.76 in1007.8 mb 0.00 in0.0 mm 0.00 in0.0 mm 0.04 in1.0 mm
10:05 PM 45.0°F7.2°C 35.8°F2.1°C 70% Calm Calm 5.0 mph8.0 kmh 29.76 in1007.8 mb 0.00 in0.0 mm 0.00 in0.0 mm 0.04 in1.0 mm
10:10 PM 45.1°F7.3°C 35.9°F2.2°C 70% 2.0 mph S3.2 kmh S 8.0 mph12.9 kmh 29.76 in1007.8 mb 0.00 in0.0 mm 0.00 in0.0 mm 0.04 in1.0 mm
10:15 PM 45.3°F7.4°C 35.7°F2.1°C 69% 3.0 mph SSW4.8 kmh SSW 8.0 mph12.9 kmh 29.76 in1007.8 mb 0.00 in0.0 mm 0.00 in0.0 mm 0.04 in1.0 mm
10:20 PM 45.3°F7.4°C 35.7°F2.1°C 69% 1.0 mph S1.6 kmh S 5.0 mph8.0 kmh 29.76 in1007.8 mb 0.00 in0.0 mm 0.00 in0.0 mm 0.04 in1.0 mm
10:25 PM 44.9°F7.2°C 36.1°F2.3°C 71% 2.0 mph SSW3.2 kmh SSW 5.0 mph8.0 kmh 29.76 in1007.8 mb 0.00 in0.0 mm 0.00 in0.0 mm 0.04 in1.0 mm
10:30 PM 44.7°F7.1°C 35.9°F2.2°C 71% 2.0 mph SSW3.2 kmh SSW 5.0 mph8.0 kmh 29.76 in1007.8 mb 0.00 in0.0 mm 0.00 in0.0 mm 0.04 in1.0 mm
10:35 PM 44.5°F6.9°C 36.1°F2.3°C 72% 2.0 mph SW3.2 kmh SW 6.0 mph9.7 kmh 29.76 in1007.8 mb 0.00 in0.0 mm 0.00 in0.0 mm 0.04 in1.0 mm
10:40 PM 44.6°F7.0°C 36.2°F2.3°C 72% 2.0 mph SW3.2 kmh SW 6.0 mph9.7 kmh 29.76 in1007.8 mb 0.00 in0.0 mm 0.00 in0.0 mm 0.04 in1.0 mm
10:45 PM 44.7°F7.1°C 35.9°F2.2°C 71% 1.0 mph SW1.6 kmh SW 6.0 mph9.7 kmh 29.76 in1007.8 mb 0.00 in0.0 mm 0.00 in0.0 mm 0.04 in1.0 mm
10:50 PM 44.5°F6.9°C 36.1°F2.3°C 72% Calm Calm 2.0 mph3.2 kmh 29.76 in1007.8 mb 0.00 in0.0 mm 0.00 in0.0 mm 0.04 in1.0 mm
10:55 PM 44.3°F6.8°C 35.9°F2.2°C 72% Calm Calm 2.0 mph3.2 kmh 29.76 in1007.8 mb 0.00 in0.0 mm 0.00 in0.0 mm 0.04 in1.0 mm
11:00 PM 44.2°F6.8°C 36.1°F2.3°C 73% Calm Calm 2.0 mph3.2 kmh 29.76 in1007.8 mb 0.00 in0.0 mm 0.00 in0.0 mm 0.04 in1.0 mm
11:05 PM 44.3°F6.8°C 35.9°F2.2°C 72% 2.0 mph WSW3.2 kmh WSW 5.0 mph8.0 kmh 29.76 in1007.8 mb 0.00 in0.0 mm 0.00 in0.0 mm 0.04 in1.0 mm
11:10 PM 44.5°F6.9°C 36.1°F2.3°C 72% Calm Calm 5.0 mph8.0 kmh 29.76 in1007.8 mb 0.00 in0.0 mm 0.00 in0.0 mm 0.04 in1.0 mm
11:15 PM 44.7°F7.1°C 36.2°F2.3°C 72% 3.0 mph WSW4.8 kmh WSW 5.0 mph8.0 kmh 29.76 in1007.8 mb 0.00 in0.0 mm 0.00 in0.0 mm 0.04 in1.0 mm
11:20 PM 44.6°F7.0°C 36.2°F2.3°C 72% 1.0 mph WSW1.6 kmh WSW 3.0 mph4.8 kmh 29.76 in1007.8 mb 0.00 in0.0 mm 0.00 in0.0 mm 0.04 in1.0 mm
11:25 PM 44.4°F6.9°C 36.3°F2.4°C 73% 2.0 mph WSW3.2 kmh WSW 3.0 mph4.8 kmh 29.76 in1007.8 mb 0.00 in0.0 mm 0.00 in0.0 mm 0.04 in1.0 mm
11:30 PM 44.3°F6.8°C 36.2°F2.3°C 73% 2.0 mph WSW3.2 kmh WSW 4.0 mph6.4 kmh 29.76 in1007.8 mb 0.00 in0.0 mm 0.00 in0.0 mm 0.04 in1.0 mm
11:35 PM 44.3°F6.8°C 35.9°F2.2°C 72% 2.0 mph WSW3.2 kmh WSW 2.0 mph3.2 kmh 29.76 in1007.8 mb 0.00 in0.0 mm 0.00 in0.0 mm 0.04 in1.0 mm
11:40 PM 44.4°F6.9°C 36.3°F2.4°C 73% 2.0 mph WSW3.2 kmh WSW 3.0 mph4.8 kmh 29.76 in1007.8 mb 0.00 in0.0 mm 0.00 in0.0 mm 0.04 in1.0 mm
11:45 PM 44.4°F6.9°C 36.0°F2.2°C 72% 2.0 mph SW3.2 kmh SW 6.0 mph9.7 kmh 29.76 in1007.8 mb 0.00 in0.0 mm 0.00 in0.0 mm 0.04 in1.0 mm
11:50 PM 44.4°F6.9°C 36.0°F2.2°C 72% 4.0 mph SW6.4 kmh SW 5.0 mph8.0 kmh 29.76 in1007.8 mb 0.00 in0.0 mm 0.00 in0.0 mm 0.04 in1.0 mm
11:55 PM 44.5°F6.9°C 35.7°F2.1°C 71% 2.0 mph SW3.2 kmh SW 5.0 mph8.0 kmh 29.76 in1007.8 mb 0.00 in0.0 mm 0.00 in0.0 mm 0.04 in1.0 mm